createdAt,value
2023-06-27T00:01:48.910Z,100.00
2023-06-27T00:04:15.468Z,100.00
2023-06-27T00:06:42.351Z,100.00
2023-06-27T00:09:12.206Z,100.00
2023-06-27T00:11:39.580Z,100.00
2023-06-27T00:14:06.940Z,100.00
2023-06-27T00:16:36.398Z,100.00
2023-06-27T00:19:05.892Z,100.00
2023-06-27T00:21:33.315Z,100.00
2023-06-27T00:24:00.836Z,100.00
2023-06-27T00:26:29.027Z,100.00
2023-06-27T00:28:56.197Z,100.00
2023-06-27T00:31:23.570Z,100.00
2023-06-27T00:33:50.693Z,100.00
2023-06-27T00:36:17.246Z,100.00
2023-06-27T00:38:43.796Z,100.00
2023-06-27T00:41:10.493Z,100.00
2023-06-27T00:43:37.177Z,99.33
2023-06-27T00:46:06.389Z,99.06
2023-06-27T00:48:33.850Z,98.24
2023-06-27T00:51:00.756Z,99.37
2023-06-27T00:53:27.802Z,98.73
2023-06-27T00:55:54.714Z,95.89
2023-06-27T00:58:22.093Z,94.20
2023-06-27T01:00:51.261Z,92.10
2023-06-27T01:03:17.782Z,92.80
2023-06-27T01:05:44.514Z,93.30
2023-06-27T01:08:19.467Z,92.46
2023-06-27T01:10:53.874Z,91.70
2023-06-27T01:13:31.114Z,91.66
2023-06-27T01:16:01.377Z,90.98
2023-06-27T01:18:30.094Z,91.75
2023-06-27T01:20:59.376Z,91.77
2023-06-27T01:23:34.729Z,91.71
2023-06-27T01:26:02.870Z,91.23
2023-06-27T01:28:29.325Z,89.23
2023-06-27T01:30:55.827Z,88.39
2023-06-27T01:33:33.912Z,88.45
2023-06-27T01:36:10.963Z,89.41
2023-06-27T01:38:48.304Z,89.10
2023-06-27T01:41:21.702Z,89.79
2023-06-27T01:43:49.495Z,90.44
2023-06-27T01:46:16.435Z,90.89
2023-06-27T01:48:44.213Z,90.96
2023-06-27T01:51:11.156Z,91.06
2023-06-27T01:53:37.761Z,90.91
2023-06-27T01:56:08.082Z,91.24
2023-06-27T01:58:34.806Z,89.79
2023-06-27T02:01:01.301Z,89.50
2023-06-27T02:03:27.900Z,90.42
2023-06-27T02:05:54.400Z,90.02
2023-06-27T02:08:20.931Z,90.80
2023-06-27T02:10:47.470Z,91.26
2023-06-27T02:13:13.999Z,91.24
2023-06-27T02:15:41.506Z,91.19
2023-06-27T02:18:08.315Z,90.39
2023-06-27T02:20:34.897Z,90.12
2023-06-27T02:23:01.548Z,90.04
2023-06-27T02:25:28.084Z,90.23
2023-06-27T02:27:54.555Z,89.10
2023-06-27T02:30:21.059Z,89.55
2023-06-27T02:32:47.608Z,89.55
2023-06-27T02:35:16.551Z,89.41
2023-06-27T02:37:43.984Z,89.74
2023-06-27T02:40:11.043Z,89.64
2023-06-27T02:42:37.655Z,89.69
2023-06-27T02:45:04.493Z,89.87
2023-06-27T02:47:30.913Z,90.01
2023-06-27T02:49:57.519Z,89.54
2023-06-27T02:52:23.980Z,90.06
2023-06-27T02:55:27.501Z,91.08
2023-06-27T02:57:54.020Z,89.88
2023-06-27T03:00:26.540Z,91.47
2023-06-27T03:02:53.207Z,90.55
2023-06-27T03:05:19.731Z,90.59
2023-06-27T03:07:46.419Z,89.99
2023-06-27T03:10:12.892Z,90.12
2023-06-27T03:12:39.407Z,90.19
2023-06-27T03:15:06.390Z,90.51
2023-06-27T03:17:32.991Z,90.94
2023-06-27T03:19:59.472Z,91.11
2023-06-27T03:22:26.046Z,91.40
2023-06-27T03:24:52.513Z,91.77
2023-06-27T03:27:21.349Z,91.10
2023-06-27T03:29:47.852Z,91.56
2023-06-27T03:32:14.516Z,91.34
2023-06-27T03:34:42.938Z,90.96
2023-06-27T03:37:10.073Z,91.26
2023-06-27T03:39:36.655Z,91.73
2023-06-27T03:42:03.436Z,91.48
2023-06-27T03:44:29.884Z,91.53
2023-06-27T03:46:56.633Z,91.67
2023-06-27T03:49:23.694Z,91.40
2023-06-27T03:51:50.225Z,92.12
2023-06-27T03:54:16.856Z,91.48
2023-06-27T03:56:43.333Z,90.43
2023-06-27T03:59:09.847Z,91.29
2023-06-27T04:01:36.447Z,89.89
2023-06-27T04:04:03.084Z,90.31
2023-06-27T04:06:29.753Z,89.28
2023-06-27T04:08:57.398Z,87.45
2023-06-27T04:11:24.106Z,87.94
2023-06-27T04:13:50.759Z,86.70
2023-06-27T04:16:17.240Z,85.23
2023-06-27T04:18:43.753Z,84.37
2023-06-27T04:21:10.210Z,85.40
2023-06-27T04:23:36.733Z,85.37
2023-06-27T04:26:05.708Z,86.51
2023-06-27T04:28:32.767Z,85.88
2023-06-27T04:30:59.858Z,86.90
2023-06-27T04:33:26.443Z,86.58
2023-06-27T04:35:55.021Z,86.33
2023-06-27T04:38:21.799Z,85.49
2023-06-27T04:40:48.374Z,86.25
2023-06-27T04:43:15.612Z,84.43
2023-06-27T04:45:42.248Z,85.50
2023-06-27T04:48:08.860Z,84.08
2023-06-27T04:50:36.728Z,85.29
2023-06-27T04:53:05.846Z,83.58
2023-06-27T04:55:33.172Z,84.35
2023-06-27T04:57:59.645Z,82.49
2023-06-27T05:00:26.257Z,83.02
2023-06-27T05:02:52.811Z,84.03
2023-06-27T05:05:19.392Z,84.51
2023-06-27T05:07:47.927Z,84.47
2023-06-27T05:10:14.562Z,84.88
2023-06-27T05:12:41.335Z,83.77
2023-06-27T05:15:08.226Z,83.95
2023-06-27T05:17:34.705Z,82.09
2023-06-27T05:20:01.092Z,83.42
2023-06-27T05:22:27.711Z,82.27
2023-06-27T05:24:54.150Z,82.58
2023-06-27T05:27:20.766Z,83.76
2023-06-27T05:29:47.215Z,81.61
2023-06-27T05:32:13.702Z,81.71
2023-06-27T05:34:40.163Z,80.16
2023-06-27T05:37:06.708Z,80.32
2023-06-27T05:39:33.854Z,80.94
2023-06-27T05:42:00.446Z,80.72
2023-06-27T05:44:26.904Z,80.45
2023-06-27T05:46:53.413Z,82.27
2023-06-27T05:49:19.869Z,80.88
2023-06-27T05:51:46.406Z,81.99
2023-06-27T05:54:12.862Z,80.71
2023-06-27T05:56:39.435Z,82.01
2023-06-27T05:59:06.078Z,82.29
2023-06-27T06:01:32.545Z,81.57
2023-06-27T06:03:59.039Z,82.31
2023-06-27T06:06:25.618Z,79.83
2023-06-27T06:08:52.087Z,77.26
2023-06-27T06:11:18.543Z,76.19
2023-06-27T06:13:45.174Z,76.53
2023-06-27T06:16:11.681Z,76.03
2023-06-27T06:18:38.202Z,74.01
2023-06-27T06:21:04.812Z,74.01
2023-06-27T06:23:31.278Z,70.50
2023-06-27T06:25:57.764Z,68.66
2023-06-27T06:28:24.630Z,67.99
2023-06-27T06:30:50.981Z,69.43
2023-06-27T06:33:17.548Z,67.22
2023-06-27T06:35:44.028Z,66.44
2023-06-27T06:38:10.650Z,70.01
2023-06-27T06:40:40.217Z,68.83
2023-06-27T06:43:06.704Z,66.18
2023-06-27T06:45:33.174Z,63.19
2023-06-27T06:48:00.458Z,62.25
2023-06-27T06:50:27.156Z,61.44
2023-06-27T06:52:53.753Z,59.98
2023-06-27T06:55:20.236Z,60.45
2023-06-27T06:57:46.804Z,57.93
2023-06-27T07:00:14.959Z,57.79
2023-06-27T07:02:41.630Z,57.15
2023-06-27T07:05:08.147Z,58.99
2023-06-27T07:07:34.747Z,57.67
2023-06-27T07:10:01.344Z,58.50
2023-06-27T07:12:27.833Z,58.72
2023-06-27T07:14:54.385Z,58.37
2023-06-27T07:17:20.973Z,58.15
2023-06-27T07:19:47.530Z,57.83
2023-06-27T07:22:14.113Z,57.64
2023-06-27T07:24:40.680Z,59.01
2023-06-27T07:27:07.612Z,58.89
2023-06-27T07:29:34.099Z,57.44
2023-06-27T07:32:01.035Z,58.88
2023-06-27T07:34:27.578Z,59.08
2023-06-27T07:36:54.184Z,56.59
2023-06-27T07:41:52.242Z,56.34
2023-06-27T07:44:18.702Z,55.87
2023-06-27T07:46:45.270Z,57.11
2023-06-27T07:49:11.801Z,56.71
2023-06-27T07:51:38.308Z,56.28
2023-06-27T07:54:05.005Z,56.40
2023-06-27T07:56:31.503Z,54.92
2023-06-27T07:58:59.160Z,56.83
2023-06-27T08:01:41.519Z,53.02
2023-06-27T08:04:11.158Z,55.02
2023-06-27T08:06:45.485Z,53.62
2023-06-27T08:09:29.993Z,52.49
2023-06-27T08:12:26.101Z,54.57
2023-06-27T08:14:58.135Z,54.95
2023-06-27T08:17:26.328Z,56.11
2023-06-27T08:20:13.450Z,55.49
2023-06-27T08:22:50.161Z,55.63
2023-06-27T08:25:32.945Z,54.89
2023-06-27T08:28:22.042Z,52.81
2023-06-27T08:30:59.323Z,52.08
2023-06-27T08:33:37.436Z,53.46
2023-06-27T08:36:19.594Z,53.28
2023-06-27T08:38:46.139Z,55.12
2023-06-27T08:41:14.819Z,54.38
2023-06-27T08:43:41.329Z,54.56
2023-06-27T08:46:09.857Z,54.59
2023-06-27T08:48:42.863Z,52.96
2023-06-27T08:51:12.403Z,54.25
2023-06-27T08:53:42.494Z,56.71
2023-06-27T08:56:12.258Z,54.13
2023-06-27T08:58:47.080Z,51.46
2023-06-27T09:01:14.225Z,51.09
2023-06-27T09:03:40.885Z,51.32
2023-06-27T09:06:08.803Z,52.34
2023-06-27T09:08:36.567Z,53.39
2023-06-27T09:11:05.614Z,51.52
2023-06-27T09:13:32.243Z,52.49
2023-06-27T09:15:58.716Z,54.42
2023-06-27T09:18:25.270Z,55.51
2023-06-27T09:20:55.411Z,58.76
2023-06-27T09:23:22.128Z,58.94
2023-06-27T09:26:12.674Z,61.16
2023-06-27T09:28:49.252Z,59.84
2023-06-27T09:31:17.729Z,56.34
2023-06-27T09:33:46.343Z,55.29
2023-06-27T09:39:06.270Z,56.40
2023-06-27T09:41:43.026Z,56.47
2023-06-27T09:44:18.453Z,59.14
2023-06-27T09:46:55.045Z,59.95
2023-06-27T09:49:23.335Z,59.32
2023-06-27T09:51:51.567Z,58.94
2023-06-27T09:54:22.820Z,54.74
2023-06-27T09:56:53.697Z,56.97
2023-06-27T09:59:25.904Z,56.32
2023-06-27T10:02:04.272Z,51.55
2023-06-27T10:04:39.662Z,49.44
2023-06-27T10:07:14.635Z,50.70
2023-06-27T10:10:14.693Z,48.06
2023-06-27T10:12:56.774Z,47.47
2023-06-27T10:15:28.139Z,48.84
2023-06-27T10:20:55.780Z,50.58
2023-06-27T10:23:39.256Z,48.92
2023-06-27T10:26:23.875Z,45.84
2023-06-27T10:29:19.009Z,46.39
2023-06-27T10:32:01.576Z,46.16
2023-06-27T10:34:42.197Z,46.12
2023-06-27T10:37:14.723Z,45.33
2023-06-27T10:40:01.802Z,46.59
2023-06-27T10:42:50.988Z,46.85
2023-06-27T10:45:20.508Z,45.47
2023-06-27T10:51:14.631Z,43.08
2023-06-27T10:53:58.112Z,42.83
2023-06-27T10:56:40.677Z,43.82
2023-06-27T10:59:22.761Z,43.04
2023-06-27T11:02:12.641Z,43.56
2023-06-27T11:04:48.986Z,44.76
2023-06-27T11:07:27.006Z,43.15
2023-06-27T11:10:29.938Z,44.35
2023-06-27T11:13:26.580Z,45.04
2023-06-27T11:15:55.372Z,47.94
2023-06-27T11:18:28.588Z,53.48
2023-06-27T11:21:11.227Z,56.57
2023-06-27T11:24:07.261Z,56.55
2023-06-27T11:26:36.939Z,56.74
2023-06-27T11:29:11.011Z,53.37
2023-06-27T11:31:44.195Z,55.21
2023-06-27T11:34:34.057Z,51.35
2023-06-27T11:37:40.023Z,46.48
2023-06-27T11:40:16.842Z,45.93
2023-06-27T11:42:43.630Z,46.92
2023-06-27T11:45:26.244Z,46.28
2023-06-27T11:47:59.222Z,46.09
2023-06-27T11:50:29.500Z,45.59
2023-06-27T11:53:10.359Z,45.59
2023-06-27T11:56:13.774Z,45.04
2023-06-27T11:59:08.671Z,46.22
2023-06-27T12:02:03.641Z,44.48
2023-06-27T12:04:54.071Z,43.93
2023-06-27T12:07:25.788Z,42.74
2023-06-27T12:10:18.567Z,44.50
2023-06-27T12:12:52.673Z,45.24
2023-06-27T12:15:52.464Z,45.15
2023-06-27T12:18:32.805Z,45.62
2023-06-27T12:21:06.035Z,43.80
2023-06-27T12:23:38.389Z,42.57
2023-06-27T12:26:10.179Z,43.45
2023-06-27T12:29:08.104Z,44.18
2023-06-27T12:31:43.353Z,44.41
2023-06-27T12:34:56.627Z,44.57
2023-06-27T12:37:35.259Z,43.39
2023-06-27T12:40:19.328Z,42.45
2023-06-27T12:43:00.582Z,42.78
2023-06-27T12:45:36.176Z,42.84
2023-06-27T12:48:19.402Z,44.42
2023-06-27T12:51:01.761Z,43.13
2023-06-27T12:53:33.786Z,42.93
2023-06-27T12:56:11.285Z,42.80
2023-06-27T12:59:11.460Z,44.55
2023-06-27T13:01:57.020Z,42.35
2023-06-27T13:04:25.387Z,41.51
2023-06-27T13:06:59.501Z,41.61
2023-06-27T13:09:39.526Z,39.95
2023-06-27T13:12:22.881Z,41.91
2023-06-27T13:15:00.371Z,44.39
2023-06-27T13:17:32.449Z,47.55
2023-06-27T13:20:11.436Z,48.68
2023-06-27T13:22:41.605Z,49.34
2023-06-27T13:25:11.428Z,48.96
2023-06-27T13:27:41.825Z,47.05
2023-06-27T13:30:12.428Z,51.08
2023-06-27T13:32:42.066Z,54.08
2023-06-27T13:35:25.806Z,54.10
2023-06-27T13:41:50.228Z,56.11
2023-06-27T13:47:10.312Z,57.29
2023-06-27T13:49:47.959Z,56.40
2023-06-27T13:52:20.116Z,57.73
2023-06-27T13:55:08.822Z,59.05
2023-06-27T13:57:47.447Z,61.44
2023-06-27T14:00:23.081Z,63.42
2023-06-27T14:03:03.355Z,62.67
2023-06-27T14:05:38.640Z,67.60
2023-06-27T14:08:11.582Z,66.88
2023-06-27T14:10:38.427Z,66.81
2023-06-27T14:13:22.011Z,67.10
2023-06-27T14:15:58.734Z,65.96
2023-06-27T14:18:29.248Z,63.35
2023-06-27T14:21:10.115Z,65.40
2023-06-27T14:23:52.980Z,68.69
2023-06-27T14:26:43.755Z,62.07
2023-06-27T14:29:19.048Z,57.21
2023-06-27T14:32:05.962Z,56.32
2023-06-27T14:34:42.987Z,52.91
2023-06-27T14:37:22.902Z,51.08
2023-06-27T14:40:12.250Z,50.61
2023-06-27T14:42:53.921Z,46.88
2023-06-27T14:45:46.805Z,47.43
2023-06-27T14:48:21.440Z,45.60
2023-06-27T14:51:14.910Z,46.62
2023-06-27T14:54:00.951Z,43.96
2023-06-27T14:56:30.707Z,48.14
2023-06-27T14:59:05.331Z,51.52
2023-06-27T15:01:34.621Z,52.25
2023-06-27T15:04:26.864Z,53.22
2023-06-27T15:07:10.339Z,50.47
2023-06-27T15:09:45.438Z,50.84
2023-06-27T15:12:25.802Z,49.07
2023-06-27T15:14:56.364Z,48.42
2023-06-27T15:20:31.728Z,49.96
2023-06-27T15:23:19.526Z,49.49
2023-06-27T15:26:25.403Z,48.95
2023-06-27T15:29:30.460Z,49.44
2023-06-27T15:32:13.299Z,50.33
2023-06-27T15:35:07.296Z,51.33
2023-06-27T15:37:40.319Z,51.46
2023-06-27T15:40:16.494Z,51.41
2023-06-27T15:42:50.802Z,51.35
2023-06-27T15:45:40.176Z,50.98
2023-06-27T15:48:18.080Z,49.92
2023-06-27T15:50:52.777Z,49.07
2023-06-27T15:53:30.198Z,49.93
2023-06-27T15:56:29.300Z,50.53
2023-06-27T15:58:59.827Z,52.71
2023-06-27T16:01:36.078Z,50.86
2023-06-27T16:04:13.638Z,49.34
2023-06-27T16:06:45.112Z,50.26
2023-06-27T16:09:20.381Z,49.59
2023-06-27T16:11:56.950Z,49.27
2023-06-27T16:14:28.879Z,49.69
2023-06-27T16:16:58.983Z,48.52
2023-06-27T16:19:27.958Z,48.94
2023-06-27T16:22:06.514Z,49.09
2023-06-27T16:24:33.869Z,48.97
2023-06-27T16:27:10.304Z,49.40
2023-06-27T16:29:43.223Z,48.27
2023-06-27T16:32:18.675Z,50.09
2023-06-27T16:34:47.769Z,48.70
2023-06-27T16:37:17.464Z,50.15
2023-06-27T16:39:52.139Z,49.13
2023-06-27T16:42:29.248Z,49.46
2023-06-27T16:44:58.908Z,50.77
2023-06-27T16:47:28.430Z,49.95
2023-06-27T16:50:00.348Z,50.30
2023-06-27T16:52:41.019Z,49.49
2023-06-27T16:55:16.864Z,49.77
2023-06-27T16:57:46.785Z,50.46
2023-06-27T17:00:16.895Z,50.47
2023-06-27T17:02:49.428Z,50.00
2023-06-27T17:05:16.694Z,50.09
2023-06-27T17:07:49.932Z,51.66
2023-06-27T17:10:34.622Z,52.74
2023-06-27T17:13:06.286Z,55.06
2023-06-27T17:15:41.519Z,53.56
2023-06-27T17:18:20.754Z,53.55
2023-06-27T17:20:51.036Z,53.45
2023-06-27T17:23:37.916Z,54.25
2023-06-27T17:26:12.915Z,53.59
2023-06-27T17:28:46.789Z,53.16
2023-06-27T17:31:16.000Z,53.32
2023-06-27T17:33:46.770Z,52.83
2023-06-27T17:36:21.306Z,52.14
2023-06-27T17:38:48.129Z,51.83
2023-06-27T17:41:27.592Z,51.87
2023-06-27T17:44:00.022Z,51.61
2023-06-27T17:46:32.791Z,51.63
2023-06-27T17:49:08.238Z,52.82
2023-06-27T17:51:37.850Z,52.95
2023-06-27T17:54:04.904Z,52.26
2023-06-27T17:56:36.766Z,52.94
2023-06-27T17:59:08.913Z,52.90
2023-06-27T18:02:03.551Z,52.23
2023-06-27T18:04:49.769Z,53.54
2023-06-27T18:07:28.800Z,54.06
2023-06-27T18:10:04.686Z,54.04
2023-06-27T18:12:31.737Z,54.42
2023-06-27T18:15:10.876Z,54.66
2023-06-27T18:17:45.234Z,54.85
2023-06-27T18:20:14.721Z,55.21
2023-06-27T18:22:46.529Z,55.74
2023-06-27T18:25:16.281Z,55.12
2023-06-27T18:27:43.992Z,55.93
2023-06-27T18:30:26.579Z,57.05
2023-06-27T18:33:14.321Z,57.75
2023-06-27T18:35:46.513Z,57.77
2023-06-27T18:38:17.998Z,58.20
2023-06-27T18:40:46.280Z,58.57
2023-06-27T18:43:16.932Z,59.16
2023-06-27T18:45:46.721Z,59.86
2023-06-27T18:48:20.090Z,60.69
2023-06-27T18:51:01.206Z,61.30
2023-06-27T18:53:30.155Z,61.58
2023-06-27T18:56:08.594Z,62.62
2023-06-27T18:58:35.978Z,63.62
2023-06-27T19:01:08.614Z,61.97
2023-06-27T19:03:38.586Z,61.00
2023-06-27T19:06:07.616Z,61.71
2023-06-27T19:08:42.562Z,61.70
2023-06-27T19:11:14.212Z,61.13
2023-06-27T19:13:45.141Z,60.94
2023-06-27T19:16:16.535Z,60.97
2023-06-27T19:18:44.231Z,60.89
2023-06-27T19:21:19.845Z,61.45
2023-06-27T19:24:01.635Z,61.24
2023-06-27T19:26:28.419Z,61.30
2023-06-27T19:29:01.367Z,61.66
2023-06-27T19:31:33.637Z,64.11
2023-06-27T19:34:02.678Z,64.47
2023-06-27T19:36:34.454Z,63.17
2023-06-27T19:39:04.622Z,62.84
2023-06-27T19:41:39.680Z,63.84
2023-06-27T19:44:29.214Z,65.03
2023-06-27T19:47:00.682Z,64.97
2023-06-27T19:49:33.953Z,65.25
2023-06-27T19:52:03.775Z,65.42
2023-06-27T19:54:37.800Z,66.04
2023-06-27T19:57:09.569Z,67.41
2023-06-27T19:59:38.859Z,67.38
2023-06-27T20:02:13.413Z,68.31
2023-06-27T20:04:45.910Z,68.29
2023-06-27T20:07:20.279Z,68.60
2023-06-27T20:10:01.403Z,68.78
2023-06-27T20:12:33.263Z,69.35
2023-06-27T20:15:07.914Z,69.50
2023-06-27T20:17:40.005Z,69.38
2023-06-27T20:20:25.373Z,69.75
2023-06-27T20:22:58.889Z,70.39
2023-06-27T20:25:38.973Z,70.49
2023-06-27T20:28:11.569Z,70.82
2023-06-27T20:30:51.388Z,71.20
2023-06-27T20:33:25.206Z,71.81
2023-06-27T20:35:57.353Z,72.59
2023-06-27T20:38:24.103Z,72.17
2023-06-27T20:41:05.876Z,71.51
2023-06-27T20:43:40.554Z,72.72
2023-06-27T20:46:19.484Z,72.78
2023-06-27T20:48:49.096Z,71.66
2023-06-27T20:51:26.045Z,71.88
2023-06-27T20:54:14.262Z,72.25
2023-06-27T20:56:45.872Z,73.99
2023-06-27T21:02:21.159Z,74.50
2023-06-27T21:05:02.770Z,73.73
2023-06-27T21:07:42.541Z,74.46
2023-06-27T21:10:24.169Z,74.33
2023-06-27T21:12:54.047Z,76.40
2023-06-27T21:15:28.548Z,77.39
2023-06-27T21:18:05.797Z,77.84
2023-06-27T21:20:32.748Z,77.40
2023-06-27T21:23:15.286Z,77.96
2023-06-27T21:25:57.827Z,77.64
2023-06-27T21:28:29.761Z,77.83
2023-06-27T21:31:11.289Z,78.09
2023-06-27T21:33:42.526Z,78.24
2023-06-27T21:36:23.905Z,78.54
2023-06-27T21:38:55.551Z,79.12
2023-06-27T21:42:06.569Z,79.44
2023-06-27T21:45:09.919Z,79.77
2023-06-27T21:47:36.728Z,79.72
2023-06-27T21:50:06.371Z,79.35
2023-06-27T21:52:44.254Z,78.97
2023-06-27T21:55:20.949Z,80.05
2023-06-27T21:57:50.090Z,80.28
2023-06-27T22:00:24.396Z,79.86
2023-06-27T22:03:01.260Z,79.40
2023-06-27T22:05:34.236Z,79.09
2023-06-27T22:08:13.053Z,79.00
2023-06-27T22:10:51.009Z,78.26
2023-06-27T22:16:08.908Z,76.60
2023-06-27T22:18:51.264Z,75.98
2023-06-27T22:21:30.184Z,76.19
2023-06-27T22:24:01.161Z,76.02
2023-06-27T22:26:44.632Z,75.22
2023-06-27T22:29:15.302Z,74.54
2023-06-27T22:31:49.075Z,74.23
2023-06-27T22:34:24.220Z,73.57
2023-06-27T22:39:48.986Z,73.24
2023-06-27T22:42:19.178Z,72.86
2023-06-27T22:44:53.375Z,73.09
2023-06-27T22:47:22.149Z,72.87
2023-06-27T22:50:12.336Z,73.26
2023-06-27T22:52:44.576Z,73.22
2023-06-27T22:55:11.311Z,72.86
2023-06-27T22:57:50.250Z,73.00
2023-06-27T23:00:23.001Z,72.67
2023-06-27T23:02:54.371Z,73.16
2023-06-27T23:05:23.686Z,73.09
2023-06-27T23:08:11.616Z,73.17
2023-06-27T23:10:41.106Z,72.78
2023-06-27T23:13:15.905Z,72.64
2023-06-27T23:15:48.521Z,72.95
2023-06-27T23:18:20.496Z,73.06
2023-06-27T23:20:50.956Z,73.00
2023-06-27T23:23:20.936Z,72.47
2023-06-27T23:25:49.960Z,72.58
2023-06-27T23:28:26.954Z,72.41
2023-06-27T23:31:16.292Z,72.58
2023-06-27T23:33:50.737Z,72.59
2023-06-27T23:36:20.909Z,72.92
2023-06-27T23:39:01.829Z,73.41
2023-06-27T23:41:33.817Z,73.43
2023-06-27T23:44:05.959Z,73.19
2023-06-27T23:46:33.036Z,73.25
2023-06-27T23:49:07.288Z,73.14
2023-06-27T23:51:41.947Z,73.75
2023-06-27T23:54:24.955Z,73.37
2023-06-27T23:56:56.814Z,73.53
2023-06-27T23:59:33.149Z,73.95
